sensor_id;sensor_type;location;lat;lon;timestamp;P1;durP1;ratioP1;P2;durP2;ratioP2
28766;SDS011;15921;52.034;20.650;2024-02-16T00:00:26;33.03;;;17.00;;
28766;SDS011;15921;52.034;20.650;2024-02-16T00:02:52;34.90;;;16.75;;
28766;SDS011;15921;52.034;20.650;2024-02-16T00:05:18;40.00;;;17.02;;
28766;SDS011;15921;52.034;20.650;2024-02-16T00:07:44;33.80;;;15.98;;
28766;SDS011;15921;52.034;20.650;2024-02-16T00:10:10;32.15;;;16.17;;
28766;SDS011;15921;52.034;20.650;2024-02-16T00:12:37;32.60;;;15.98;;
28766;SDS011;15921;52.034;20.650;2024-02-16T00:15:05;35.67;;;16.08;;
28766;SDS011;15921;52.034;20.650;2024-02-16T00:17:31;31.67;;;15.40;;
28766;SDS011;15921;52.034;20.650;2024-02-16T00:19:58;35.92;;;16.23;;
28766;SDS011;15921;52.034;20.650;2024-02-16T00:22:24;34.83;;;15.63;;
28766;SDS011;15921;52.034;20.650;2024-02-16T00:24:51;36.28;;;16.52;;
28766;SDS011;15921;52.034;20.650;2024-02-16T00:27:17;36.03;;;15.65;;
28766;SDS011;15921;52.034;20.650;2024-02-16T00:29:42;31.35;;;15.32;;
28766;SDS011;15921;52.034;20.650;2024-02-16T00:32:08;30.55;;;14.90;;
28766;SDS011;15921;52.034;20.650;2024-02-16T00:34:34;31.02;;;14.75;;
28766;SDS011;15921;52.034;20.650;2024-02-16T00:37:00;34.15;;;16.25;;
28766;SDS011;15921;52.034;20.650;2024-02-16T00:39:26;32.90;;;15.38;;
28766;SDS011;15921;52.034;20.650;2024-02-16T00:41:53;32.65;;;15.20;;
28766;SDS011;15921;52.034;20.650;2024-02-16T00:44:18;30.73;;;15.23;;
28766;SDS011;15921;52.034;20.650;2024-02-16T00:46:44;38.83;;;16.15;;
28766;SDS011;15921;52.034;20.650;2024-02-16T00:49:10;32.60;;;15.32;;
28766;SDS011;15921;52.034;20.650;2024-02-16T00:51:36;32.97;;;15.15;;
28766;SDS011;15921;52.034;20.650;2024-02-16T00:54:02;28.70;;;14.45;;
28766;SDS011;15921;52.034;20.650;2024-02-16T00:56:29;38.55;;;15.85;;
28766;SDS011;15921;52.034;20.650;2024-02-16T00:58:55;27.13;;;13.90;;
28766;SDS011;15921;52.034;20.650;2024-02-16T01:01:21;33.70;;;14.45;;
28766;SDS011;15921;52.034;20.650;2024-02-16T01:03:48;31.92;;;14.43;;
28766;SDS011;15921;52.034;20.650;2024-02-16T01:06:14;33.20;;;15.10;;
28766;SDS011;15921;52.034;20.650;2024-02-16T01:08:40;34.00;;;16.08;;
28766;SDS011;15921;52.034;20.650;2024-02-16T01:11:06;32.05;;;15.57;;
28766;SDS011;15921;52.034;20.650;2024-02-16T01:13:32;36.35;;;16.73;;
28766;SDS011;15921;52.034;20.650;2024-02-16T01:15:58;30.77;;;15.32;;
28766;SDS011;15921;52.034;20.650;2024-02-16T01:18:25;33.28;;;15.35;;
28766;SDS011;15921;52.034;20.650;2024-02-16T01:20:54;36.28;;;15.80;;
28766;SDS011;15921;52.034;20.650;2024-02-16T01:23:20;36.65;;;16.52;;
28766;SDS011;15921;52.034;20.650;2024-02-16T01:25:46;40.53;;;15.68;;
28766;SDS011;15921;52.034;20.650;2024-02-16T01:28:12;32.85;;;16.70;;
28766;SDS011;15921;52.034;20.650;2024-02-16T01:30:39;34.28;;;15.98;;
28766;SDS011;15921;52.034;20.650;2024-02-16T01:33:05;35.00;;;17.27;;
28766;SDS011;15921;52.034;20.650;2024-02-16T01:35:34;39.15;;;17.45;;
28766;SDS011;15921;52.034;20.650;2024-02-16T01:38:00;36.45;;;17.42;;
28766;SDS011;15921;52.034;20.650;2024-02-16T01:40:27;34.80;;;15.60;;
28766;SDS011;15921;52.034;20.650;2024-02-16T01:42:53;36.13;;;17.65;;
28766;SDS011;15921;52.034;20.650;2024-02-16T01:45:19;35.25;;;16.83;;
28766;SDS011;15921;52.034;20.650;2024-02-16T01:47:47;33.50;;;17.02;;
28766;SDS011;15921;52.034;20.650;2024-02-16T01:50:16;36.55;;;17.55;;
28766;SDS011;15921;52.034;20.650;2024-02-16T01:52:47;41.97;;;17.52;;
28766;SDS011;15921;52.034;20.650;2024-02-16T01:55:14;39.67;;;17.63;;
28766;SDS011;15921;52.034;20.650;2024-02-16T01:57:45;30.90;;;16.02;;
28766;SDS011;15921;52.034;20.650;2024-02-16T02:00:12;35.08;;;17.02;;
28766;SDS011;15921;52.034;20.650;2024-02-16T02:02:40;37.67;;;16.80;;
28766;SDS011;15921;52.034;20.650;2024-02-16T02:05:08;34.30;;;17.63;;
28766;SDS011;15921;52.034;20.650;2024-02-16T02:07:34;40.40;;;17.35;;
28766;SDS011;15921;52.034;20.650;2024-02-16T02:10:00;35.58;;;17.80;;
28766;SDS011;15921;52.034;20.650;2024-02-16T02:12:26;35.80;;;16.75;;
28766;SDS011;15921;52.034;20.650;2024-02-16T02:14:52;31.42;;;16.42;;
28766;SDS011;15921;52.034;20.650;2024-02-16T02:17:18;29.42;;;15.38;;
28766;SDS011;15921;52.034;20.650;2024-02-16T02:19:47;32.72;;;16.35;;
28766;SDS011;15921;52.034;20.650;2024-02-16T02:22:19;34.45;;;15.02;;
28766;SDS011;15921;52.034;20.650;2024-02-16T02:24:45;28.20;;;15.63;;
28766;SDS011;15921;52.034;20.650;2024-02-16T02:27:12;37.72;;;16.45;;
28766;SDS011;15921;52.034;20.650;2024-02-16T02:29:39;31.92;;;14.73;;
28766;SDS011;15921;52.034;20.650;2024-02-16T02:32:05;33.22;;;15.55;;
28766;SDS011;15921;52.034;20.650;2024-02-16T02:34:32;36.42;;;15.90;;
28766;SDS011;15921;52.034;20.650;2024-02-16T02:36:58;37.35;;;15.88;;
28766;SDS011;15921;52.034;20.650;2024-02-16T02:39:23;33.60;;;15.35;;
28766;SDS011;15921;52.034;20.650;2024-02-16T02:41:49;35.17;;;17.00;;
28766;SDS011;15921;52.034;20.650;2024-02-16T02:44:15;36.58;;;16.98;;
28766;SDS011;15921;52.034;20.650;2024-02-16T02:46:41;33.00;;;15.48;;
28766;SDS011;15921;52.034;20.650;2024-02-16T02:49:06;32.00;;;16.17;;
28766;SDS011;15921;52.034;20.650;2024-02-16T02:51:33;38.42;;;16.55;;
28766;SDS011;15921;52.034;20.650;2024-02-16T02:53:59;39.95;;;17.00;;
28766;SDS011;15921;52.034;20.650;2024-02-16T02:56:24;36.20;;;15.65;;
28766;SDS011;15921;52.034;20.650;2024-02-16T02:58:50;38.95;;;17.05;;
28766;SDS011;15921;52.034;20.650;2024-02-16T03:01:16;34.78;;;16.17;;
28766;SDS011;15921;52.034;20.650;2024-02-16T03:03:44;34.85;;;16.13;;
28766;SDS011;15921;52.034;20.650;2024-02-16T03:06:10;34.67;;;16.75;;
28766;SDS011;15921;52.034;20.650;2024-02-16T03:08:36;44.20;;;17.50;;
28766;SDS011;15921;52.034;20.650;2024-02-16T03:11:01;38.05;;;17.08;;
28766;SDS011;15921;52.034;20.650;2024-02-16T03:13:29;37.25;;;16.95;;
28766;SDS011;15921;52.034;20.650;2024-02-16T03:15:55;39.38;;;16.42;;
28766;SDS011;15921;52.034;20.650;2024-02-16T03:18:20;32.20;;;17.50;;
28766;SDS011;15921;52.034;20.650;2024-02-16T03:20:46;38.45;;;18.13;;
28766;SDS011;15921;52.034;20.650;2024-02-16T03:23:14;38.80;;;17.50;;
28766;SDS011;15921;52.034;20.650;2024-02-16T03:25:40;41.78;;;16.67;;
28766;SDS011;15921;52.034;20.650;2024-02-16T03:28:11;38.42;;;17.40;;
28766;SDS011;15921;52.034;20.650;2024-02-16T03:30:37;35.47;;;16.58;;
28766;SDS011;15921;52.034;20.650;2024-02-16T03:33:03;36.03;;;17.55;;
28766;SDS011;15921;52.034;20.650;2024-02-16T03:35:29;36.30;;;16.85;;
28766;SDS011;15921;52.034;20.650;2024-02-16T03:37:55;35.38;;;16.70;;
28766;SDS011;15921;52.034;20.650;2024-02-16T03:40:22;35.97;;;17.60;;
28766;SDS011;15921;52.034;20.650;2024-02-16T03:42:49;35.90;;;17.60;;
28766;SDS011;15921;52.034;20.650;2024-02-16T03:45:16;37.08;;;17.33;;
28766;SDS011;15921;52.034;20.650;2024-02-16T03:47:41;34.42;;;16.63;;
28766;SDS011;15921;52.034;20.650;2024-02-16T03:50:07;36.13;;;17.02;;
28766;SDS011;15921;52.034;20.650;2024-02-16T03:52:33;33.40;;;16.90;;
28766;SDS011;15921;52.034;20.650;2024-02-16T03:54:59;34.33;;;17.45;;
28766;SDS011;15921;52.034;20.650;2024-02-16T03:57:25;43.97;;;18.08;;
28766;SDS011;15921;52.034;20.650;2024-02-16T03:59:51;38.70;;;17.88;;
28766;SDS011;15921;52.034;20.650;2024-02-16T04:02:17;33.25;;;16.85;;
28766;SDS011;15921;52.034;20.650;2024-02-16T04:04:43;44.42;;;19.08;;
28766;SDS011;15921;52.034;20.650;2024-02-16T04:07:09;44.33;;;18.08;;
28766;SDS011;15921;52.034;20.650;2024-02-16T04:09:35;39.60;;;18.15;;
28766;SDS011;15921;52.034;20.650;2024-02-16T04:12:01;38.60;;;18.02;;
28766;SDS011;15921;52.034;20.650;2024-02-16T04:14:28;41.67;;;17.75;;
28766;SDS011;15921;52.034;20.650;2024-02-16T04:16:55;38.72;;;18.17;;
28766;SDS011;15921;52.034;20.650;2024-02-16T04:19:23;42.38;;;18.80;;
28766;SDS011;15921;52.034;20.650;2024-02-16T04:21:51;40.08;;;17.83;;
28766;SDS011;15921;52.034;20.650;2024-02-16T04:24:17;42.47;;;18.85;;
28766;SDS011;15921;52.034;20.650;2024-02-16T04:26:43;40.47;;;18.02;;
28766;SDS011;15921;52.034;20.650;2024-02-16T04:29:09;36.05;;;17.00;;
28766;SDS011;15921;52.034;20.650;2024-02-16T04:31:38;38.22;;;17.60;;
28766;SDS011;15921;52.034;20.650;2024-02-16T04:34:05;40.97;;;19.45;;
28766;SDS011;15921;52.034;20.650;2024-02-16T04:36:31;38.28;;;18.85;;
28766;SDS011;15921;52.034;20.650;2024-02-16T04:38:57;39.42;;;18.52;;
28766;SDS011;15921;52.034;20.650;2024-02-16T04:41:22;37.10;;;17.88;;
28766;SDS011;15921;52.034;20.650;2024-02-16T04:43:48;40.05;;;17.85;;
28766;SDS011;15921;52.034;20.650;2024-02-16T04:46:17;39.22;;;17.00;;
28766;SDS011;15921;52.034;20.650;2024-02-16T04:48:43;39.25;;;18.08;;
28766;SDS011;15921;52.034;20.650;2024-02-16T04:51:10;39.70;;;16.80;;
28766;SDS011;15921;52.034;20.650;2024-02-16T04:53:36;40.88;;;18.58;;
28766;SDS011;15921;52.034;20.650;2024-02-16T04:56:01;43.33;;;18.92;;
28766;SDS011;15921;52.034;20.650;2024-02-16T04:58:27;37.25;;;18.30;;
28766;SDS011;15921;52.034;20.650;2024-02-16T05:00:53;42.58;;;19.63;;
28766;SDS011;15921;52.034;20.650;2024-02-16T05:03:19;44.65;;;19.38;;
28766;SDS011;15921;52.034;20.650;2024-02-16T05:05:44;33.80;;;16.70;;
28766;SDS011;15921;52.034;20.650;2024-02-16T05:08:10;37.15;;;18.75;;
28766;SDS011;15921;52.034;20.650;2024-02-16T05:10:36;39.78;;;18.77;;
28766;SDS011;15921;52.034;20.650;2024-02-16T05:13:03;42.15;;;18.63;;
28766;SDS011;15921;52.034;20.650;2024-02-16T05:15:29;39.70;;;18.35;;
28766;SDS011;15921;52.034;20.650;2024-02-16T05:17:55;45.40;;;19.75;;
28766;SDS011;15921;52.034;20.650;2024-02-16T05:20:20;38.40;;;18.30;;
28766;SDS011;15921;52.034;20.650;2024-02-16T05:22:46;44.28;;;20.27;;
28766;SDS011;15921;52.034;20.650;2024-02-16T05:25:15;40.08;;;19.45;;
28766;SDS011;15921;52.034;20.650;2024-02-16T05:27:45;43.65;;;18.67;;
28766;SDS011;15921;52.034;20.650;2024-02-16T05:30:12;33.03;;;18.23;;
28766;SDS011;15921;52.034;20.650;2024-02-16T05:32:40;39.42;;;18.70;;
28766;SDS011;15921;52.034;20.650;2024-02-16T05:35:06;40.53;;;19.05;;
28766;SDS011;15921;52.034;20.650;2024-02-16T05:37:43;44.72;;;19.23;;
28766;SDS011;15921;52.034;20.650;2024-02-16T05:40:12;45.67;;;19.40;;
28766;SDS011;15921;52.034;20.650;2024-02-16T05:42:47;45.72;;;19.02;;
28766;SDS011;15921;52.034;20.650;2024-02-16T05:45:14;46.30;;;20.02;;
28766;SDS011;15921;52.034;20.650;2024-02-16T05:47:44;46.83;;;20.35;;
28766;SDS011;15921;52.034;20.650;2024-02-16T05:50:11;38.28;;;17.80;;
28766;SDS011;15921;52.034;20.650;2024-02-16T05:52:38;43.42;;;18.90;;
28766;SDS011;15921;52.034;20.650;2024-02-16T05:55:05;39.97;;;19.20;;
28766;SDS011;15921;52.034;20.650;2024-02-16T05:57:31;47.17;;;20.88;;
28766;SDS011;15921;52.034;20.650;2024-02-16T05:59:57;42.90;;;19.17;;
28766;SDS011;15921;52.034;20.650;2024-02-16T06:02:23;35.92;;;17.38;;
28766;SDS011;15921;52.034;20.650;2024-02-16T06:04:55;36.95;;;18.45;;
28766;SDS011;15921;52.034;20.650;2024-02-16T06:07:21;40.92;;;19.13;;
28766;SDS011;15921;52.034;20.650;2024-02-16T06:09:47;42.83;;;18.70;;
28766;SDS011;15921;52.034;20.650;2024-02-16T06:12:12;38.58;;;18.67;;
28766;SDS011;15921;52.034;20.650;2024-02-16T06:14:38;41.08;;;19.02;;
28766;SDS011;15921;52.034;20.650;2024-02-16T06:17:04;43.80;;;17.08;;
28766;SDS011;15921;52.034;20.650;2024-02-16T06:19:30;42.08;;;18.88;;
28766;SDS011;15921;52.034;20.650;2024-02-16T06:21:56;42.58;;;18.35;;
28766;SDS011;15921;52.034;20.650;2024-02-16T06:24:22;39.55;;;19.17;;
28766;SDS011;15921;52.034;20.650;2024-02-16T06:26:48;40.97;;;18.83;;
28766;SDS011;15921;52.034;20.650;2024-02-16T06:29:14;39.50;;;18.85;;
28766;SDS011;15921;52.034;20.650;2024-02-16T06:31:40;41.53;;;19.05;;
28766;SDS011;15921;52.034;20.650;2024-02-16T06:34:06;45.95;;;19.25;;
28766;SDS011;15921;52.034;20.650;2024-02-16T06:36:33;52.45;;;20.33;;
28766;SDS011;15921;52.034;20.650;2024-02-16T06:38:59;39.00;;;17.50;;
28766;SDS011;15921;52.034;20.650;2024-02-16T06:41:25;43.42;;;19.10;;
28766;SDS011;15921;52.034;20.650;2024-02-16T06:43:51;40.42;;;18.55;;
28766;SDS011;15921;52.034;20.650;2024-02-16T06:46:17;41.40;;;18.95;;
28766;SDS011;15921;52.034;20.650;2024-02-16T06:48:42;39.92;;;18.90;;
28766;SDS011;15921;52.034;20.650;2024-02-16T06:51:08;44.85;;;19.48;;
28766;SDS011;15921;52.034;20.650;2024-02-16T06:53:36;41.35;;;19.98;;
28766;SDS011;15921;52.034;20.650;2024-02-16T06:56:02;51.80;;;19.55;;
28766;SDS011;15921;52.034;20.650;2024-02-16T06:58:28;45.80;;;19.35;;
28766;SDS011;15921;52.034;20.650;2024-02-16T07:00:54;41.05;;;17.75;;
28766;SDS011;15921;52.034;20.650;2024-02-16T07:03:20;36.20;;;18.30;;
28766;SDS011;15921;52.034;20.650;2024-02-16T07:05:45;43.88;;;18.50;;
28766;SDS011;15921;52.034;20.650;2024-02-16T07:08:11;41.30;;;19.77;;
28766;SDS011;15921;52.034;20.650;2024-02-16T07:10:37;39.15;;;17.58;;
28766;SDS011;15921;52.034;20.650;2024-02-16T07:13:02;41.28;;;18.23;;
28766;SDS011;15921;52.034;20.650;2024-02-16T07:15:28;44.67;;;19.35;;
28766;SDS011;15921;52.034;20.650;2024-02-16T07:17:54;43.13;;;19.65;;
28766;SDS011;15921;52.034;20.650;2024-02-16T07:20:21;42.40;;;19.27;;
28766;SDS011;15921;52.034;20.650;2024-02-16T07:22:47;43.30;;;19.38;;
28766;SDS011;15921;52.034;20.650;2024-02-16T07:25:13;42.50;;;18.67;;
28766;SDS011;15921;52.034;20.650;2024-02-16T07:27:38;37.40;;;16.38;;
28766;SDS011;15921;52.034;20.650;2024-02-16T07:30:04;43.78;;;19.02;;
28766;SDS011;15921;52.034;20.650;2024-02-16T07:32:30;45.78;;;18.50;;
28766;SDS011;15921;52.034;20.650;2024-02-16T07:34:56;42.15;;;18.25;;
28766;SDS011;15921;52.034;20.650;2024-02-16T07:37:22;39.15;;;18.55;;
28766;SDS011;15921;52.034;20.650;2024-02-16T07:39:47;45.13;;;19.23;;
28766;SDS011;15921;52.034;20.650;2024-02-16T07:42:13;44.38;;;17.63;;
28766;SDS011;15921;52.034;20.650;2024-02-16T07:44:39;40.47;;;17.58;;
28766;SDS011;15921;52.034;20.650;2024-02-16T07:47:05;39.22;;;17.30;;
28766;SDS011;15921;52.034;20.650;2024-02-16T07:49:31;36.78;;;17.10;;
28766;SDS011;15921;52.034;20.650;2024-02-16T07:51:56;36.20;;;16.55;;
28766;SDS011;15921;52.034;20.650;2024-02-16T07:54:25;37.72;;;17.75;;
28766;SDS011;15921;52.034;20.650;2024-02-16T07:56:50;31.52;;;16.23;;
28766;SDS011;15921;52.034;20.650;2024-02-16T07:59:16;37.42;;;17.83;;
28766;SDS011;15921;52.034;20.650;2024-02-16T08:01:44;39.17;;;16.92;;
28766;SDS011;15921;52.034;20.650;2024-02-16T08:04:10;34.60;;;17.05;;
28766;SDS011;15921;52.034;20.650;2024-02-16T08:06:35;35.75;;;15.68;;
28766;SDS011;15921;52.034;20.650;2024-02-16T08:09:01;30.40;;;14.38;;
28766;SDS011;15921;52.034;20.650;2024-02-16T08:11:29;33.88;;;15.65;;
28766;SDS011;15921;52.034;20.650;2024-02-16T08:13:55;36.75;;;16.35;;
28766;SDS011;15921;52.034;20.650;2024-02-16T08:16:25;38.42;;;16.63;;
28766;SDS011;15921;52.034;20.650;2024-02-16T08:18:51;35.40;;;16.42;;
28766;SDS011;15921;52.034;20.650;2024-02-16T08:21:17;38.90;;;16.40;;
28766;SDS011;15921;52.034;20.650;2024-02-16T08:23:43;38.33;;;16.17;;
28766;SDS011;15921;52.034;20.650;2024-02-16T08:26:08;32.47;;;15.52;;
28766;SDS011;15921;52.034;20.650;2024-02-16T08:28:34;36.20;;;16.30;;
28766;SDS011;15921;52.034;20.650;2024-02-16T08:31:00;33.67;;;14.55;;
28766;SDS011;15921;52.034;20.650;2024-02-16T08:33:25;27.63;;;14.15;;
28766;SDS011;15921;52.034;20.650;2024-02-16T08:35:51;31.27;;;15.80;;
28766;SDS011;15921;52.034;20.650;2024-02-16T08:38:17;31.10;;;15.38;;
28766;SDS011;15921;52.034;20.650;2024-02-16T08:40:43;38.17;;;15.45;;
28766;SDS011;15921;52.034;20.650;2024-02-16T08:43:09;29.52;;;14.10;;
28766;SDS011;15921;52.034;20.650;2024-02-16T08:45:34;33.65;;;14.85;;
28766;SDS011;15921;52.034;20.650;2024-02-16T08:48:00;30.08;;;14.23;;
28766;SDS011;15921;52.034;20.650;2024-02-16T08:50:28;30.30;;;14.85;;
28766;SDS011;15921;52.034;20.650;2024-02-16T08:52:54;33.38;;;14.65;;
28766;SDS011;15921;52.034;20.650;2024-02-16T08:55:20;29.55;;;15.13;;
28766;SDS011;15921;52.034;20.650;2024-02-16T08:57:46;35.30;;;14.60;;
28766;SDS011;15921;52.034;20.650;2024-02-16T09:00:12;35.53;;;14.27;;
28766;SDS011;15921;52.034;20.650;2024-02-16T09:02:38;33.63;;;15.70;;
28766;SDS011;15921;52.034;20.650;2024-02-16T09:05:04;29.92;;;13.73;;
28766;SDS011;15921;52.034;20.650;2024-02-16T09:07:30;29.83;;;14.98;;
28766;SDS011;15921;52.034;20.650;2024-02-16T09:09:56;28.35;;;14.50;;
28766;SDS011;15921;52.034;20.650;2024-02-16T09:12:22;37.58;;;15.10;;
28766;SDS011;15921;52.034;20.650;2024-02-16T09:14:48;34.05;;;14.55;;
28766;SDS011;15921;52.034;20.650;2024-02-16T09:17:14;28.98;;;14.23;;
28766;SDS011;15921;52.034;20.650;2024-02-16T09:19:40;29.50;;;14.55;;
28766;SDS011;15921;52.034;20.650;2024-02-16T09:22:05;37.83;;;15.65;;
28766;SDS011;15921;52.034;20.650;2024-02-16T09:24:31;27.45;;;14.15;;
28766;SDS011;15921;52.034;20.650;2024-02-16T09:26:57;30.33;;;14.27;;
28766;SDS011;15921;52.034;20.650;2024-02-16T09:29:28;27.15;;;12.98;;
28766;SDS011;15921;52.034;20.650;2024-02-16T09:31:54;28.65;;;14.00;;
28766;SDS011;15921;52.034;20.650;2024-02-16T09:34:20;31.42;;;14.75;;
28766;SDS011;15921;52.034;20.650;2024-02-16T09:36:46;32.97;;;15.05;;
28766;SDS011;15921;52.034;20.650;2024-02-16T09:39:11;30.45;;;14.25;;
28766;SDS011;15921;52.034;20.650;2024-02-16T09:41:37;30.40;;;16.02;;
28766;SDS011;15921;52.034;20.650;2024-02-16T09:44:08;27.80;;;14.35;;
28766;SDS011;15921;52.034;20.650;2024-02-16T09:46:35;32.33;;;15.00;;
28766;SDS011;15921;52.034;20.650;2024-02-16T09:49:01;32.75;;;15.43;;
28766;SDS011;15921;52.034;20.650;2024-02-16T09:51:31;30.20;;;15.10;;
28766;SDS011;15921;52.034;20.650;2024-02-16T09:54:01;32.50;;;14.20;;
28766;SDS011;15921;52.034;20.650;2024-02-16T09:56:27;26.17;;;13.10;;
28766;SDS011;15921;52.034;20.650;2024-02-16T09:58:54;28.35;;;13.98;;
28766;SDS011;15921;52.034;20.650;2024-02-16T10:01:23;32.35;;;15.13;;
28766;SDS011;15921;52.034;20.650;2024-02-16T10:03:49;32.60;;;15.98;;
28766;SDS011;15921;52.034;20.650;2024-02-16T10:06:15;36.13;;;14.98;;
28766;SDS011;15921;52.034;20.650;2024-02-16T10:08:52;29.55;;;13.63;;
28766;SDS011;15921;52.034;20.650;2024-02-16T10:11:22;29.23;;;14.98;;
28766;SDS011;15921;52.034;20.650;2024-02-16T10:14:02;30.08;;;14.45;;
28766;SDS011;15921;52.034;20.650;2024-02-16T10:16:29;29.95;;;14.52;;
28766;SDS011;15921;52.034;20.650;2024-02-16T10:19:05;25.90;;;13.50;;
28766;SDS011;15921;52.034;20.650;2024-02-16T10:21:32;27.23;;;14.57;;
28766;SDS011;15921;52.034;20.650;2024-02-16T10:26:30;30.90;;;14.43;;
28766;SDS011;15921;52.034;20.650;2024-02-16T10:28:56;30.35;;;14.52;;
28766;SDS011;15921;52.034;20.650;2024-02-16T10:31:23;25.45;;;13.32;;
28766;SDS011;15921;52.034;20.650;2024-02-16T10:33:57;30.15;;;14.27;;
28766;SDS011;15921;52.034;20.650;2024-02-16T10:36:30;33.80;;;13.75;;
28766;SDS011;15921;52.034;20.650;2024-02-16T10:38:57;26.23;;;14.20;;
28766;SDS011;15921;52.034;20.650;2024-02-16T10:41:26;32.95;;;15.20;;
28766;SDS011;15921;52.034;20.650;2024-02-16T10:43:55;25.45;;;12.80;;
28766;SDS011;15921;52.034;20.650;2024-02-16T10:46:24;31.38;;;15.13;;
28766;SDS011;15921;52.034;20.650;2024-02-16T10:48:50;32.65;;;13.85;;
28766;SDS011;15921;52.034;20.650;2024-02-16T10:51:17;26.88;;;13.82;;
28766;SDS011;15921;52.034;20.650;2024-02-16T10:53:53;29.35;;;13.63;;
28766;SDS011;15921;52.034;20.650;2024-02-16T10:56:27;27.15;;;14.15;;
28766;SDS011;15921;52.034;20.650;2024-02-16T10:59:05;28.15;;;14.52;;
28766;SDS011;15921;52.034;20.650;2024-02-16T11:04:04;31.25;;;14.18;;
28766;SDS011;15921;52.034;20.650;2024-02-16T11:06:43;30.42;;;15.20;;
28766;SDS011;15921;52.034;20.650;2024-02-16T11:09:10;29.17;;;14.43;;
28766;SDS011;15921;52.034;20.650;2024-02-16T11:11:36;31.83;;;14.85;;
28766;SDS011;15921;52.034;20.650;2024-02-16T11:14:02;28.58;;;14.43;;
28766;SDS011;15921;52.034;20.650;2024-02-16T11:16:29;28.23;;;14.45;;
28766;SDS011;15921;52.034;20.650;2024-02-16T11:18:54;32.90;;;13.95;;
28766;SDS011;15921;52.034;20.650;2024-02-16T11:21:22;26.30;;;13.30;;
28766;SDS011;15921;52.034;20.650;2024-02-16T11:23:47;25.77;;;12.75;;
28766;SDS011;15921;52.034;20.650;2024-02-16T11:26:14;25.35;;;13.25;;
28766;SDS011;15921;52.034;20.650;2024-02-16T11:28:42;28.65;;;12.95;;
28766;SDS011;15921;52.034;20.650;2024-02-16T11:31:08;23.05;;;12.40;;
28766;SDS011;15921;52.034;20.650;2024-02-16T11:33:34;23.08;;;11.52;;
28766;SDS011;15921;52.034;20.650;2024-02-16T11:36:04;23.40;;;11.65;;
28766;SDS011;15921;52.034;20.650;2024-02-16T11:41:00;22.55;;;12.45;;
28766;SDS011;15921;52.034;20.650;2024-02-16T11:43:26;28.63;;;11.75;;
28766;SDS011;15921;52.034;20.650;2024-02-16T11:45:52;23.58;;;11.55;;
28766;SDS011;15921;52.034;20.650;2024-02-16T11:48:21;32.72;;;12.23;;
28766;SDS011;15921;52.034;20.650;2024-02-16T11:50:58;21.60;;;10.90;;
28766;SDS011;15921;52.034;20.650;2024-02-16T11:53:30;24.23;;;11.30;;
28766;SDS011;15921;52.034;20.650;2024-02-16T11:55:57;21.23;;;11.20;;
28766;SDS011;15921;52.034;20.650;2024-02-16T11:58:23;20.25;;;11.05;;
28766;SDS011;15921;52.034;20.650;2024-02-16T12:00:50;23.95;;;10.90;;
28766;SDS011;15921;52.034;20.650;2024-02-16T12:03:20;23.98;;;10.82;;
28766;SDS011;15921;52.034;20.650;2024-02-16T12:05:53;21.30;;;11.52;;
28766;SDS011;15921;52.034;20.650;2024-02-16T12:08:20;23.27;;;10.18;;
28766;SDS011;15921;52.034;20.650;2024-02-16T12:10:47;20.80;;;10.77;;
28766;SDS011;15921;52.034;20.650;2024-02-16T12:13:15;18.58;;;10.27;;
28766;SDS011;15921;52.034;20.650;2024-02-16T12:15:43;19.40;;;10.32;;
28766;SDS011;15921;52.034;20.650;2024-02-16T12:18:19;14.63;;;8.32;;
28766;SDS011;15921;52.034;20.650;2024-02-16T12:20:55;19.38;;;9.85;;
28766;SDS011;15921;52.034;20.650;2024-02-16T12:23:25;14.50;;;8.93;;
28766;SDS011;15921;52.034;20.650;2024-02-16T12:25:51;20.13;;;10.52;;
28766;SDS011;15921;52.034;20.650;2024-02-16T12:28:18;22.38;;;10.05;;
28766;SDS011;15921;52.034;20.650;2024-02-16T12:30:45;22.75;;;11.15;;
28766;SDS011;15921;52.034;20.650;2024-02-16T12:33:13;26.17;;;11.75;;
28766;SDS011;15921;52.034;20.650;2024-02-16T12:35:39;20.25;;;11.75;;
28766;SDS011;15921;52.034;20.650;2024-02-16T12:38:05;26.80;;;11.27;;
28766;SDS011;15921;52.034;20.650;2024-02-16T12:40:31;21.77;;;11.32;;
28766;SDS011;15921;52.034;20.650;2024-02-16T12:42:56;25.90;;;11.48;;
28766;SDS011;15921;52.034;20.650;2024-02-16T12:45:22;20.92;;;10.13;;
28766;SDS011;15921;52.034;20.650;2024-02-16T12:47:49;16.50;;;9.55;;
28766;SDS011;15921;52.034;20.650;2024-02-16T12:50:15;22.05;;;9.48;;
28766;SDS011;15921;52.034;20.650;2024-02-16T12:52:42;18.00;;;9.18;;
28766;SDS011;15921;52.034;20.650;2024-02-16T12:55:08;24.52;;;11.05;;
28766;SDS011;15921;52.034;20.650;2024-02-16T12:57:35;20.70;;;10.75;;
28766;SDS011;15921;52.034;20.650;2024-02-16T13:00:01;21.13;;;10.85;;
28766;SDS011;15921;52.034;20.650;2024-02-16T13:02:28;22.15;;;11.98;;
28766;SDS011;15921;52.034;20.650;2024-02-16T13:04:54;19.67;;;11.25;;
28766;SDS011;15921;52.034;20.650;2024-02-16T13:07:20;24.35;;;14.23;;
28766;SDS011;15921;52.034;20.650;2024-02-16T13:09:46;22.27;;;10.75;;
28766;SDS011;15921;52.034;20.650;2024-02-16T13:12:11;20.75;;;11.27;;
28766;SDS011;15921;52.034;20.650;2024-02-16T13:14:37;22.50;;;10.40;;
28766;SDS011;15921;52.034;20.650;2024-02-16T13:17:03;18.08;;;9.25;;
28766;SDS011;15921;52.034;20.650;2024-02-16T13:19:29;23.73;;;9.68;;
28766;SDS011;15921;52.034;20.650;2024-02-16T13:21:55;18.05;;;9.00;;
28766;SDS011;15921;52.034;20.650;2024-02-16T13:24:21;20.45;;;9.85;;
28766;SDS011;15921;52.034;20.650;2024-02-16T13:26:46;16.55;;;9.73;;
28766;SDS011;15921;52.034;20.650;2024-02-16T13:29:12;18.38;;;9.40;;
28766;SDS011;15921;52.034;20.650;2024-02-16T13:31:38;16.75;;;8.45;;
28766;SDS011;15921;52.034;20.650;2024-02-16T13:34:05;18.75;;;9.52;;
28766;SDS011;15921;52.034;20.650;2024-02-16T13:36:31;24.15;;;9.57;;
28766;SDS011;15921;52.034;20.650;2024-02-16T13:38:57;17.83;;;9.57;;
28766;SDS011;15921;52.034;20.650;2024-02-16T13:41:22;15.50;;;8.80;;
28766;SDS011;15921;52.034;20.650;2024-02-16T13:43:48;17.67;;;9.45;;
28766;SDS011;15921;52.034;20.650;2024-02-16T13:46:14;15.68;;;8.95;;
28766;SDS011;15921;52.034;20.650;2024-02-16T13:48:40;20.13;;;9.38;;
28766;SDS011;15921;52.034;20.650;2024-02-16T13:51:06;19.83;;;9.75;;
28766;SDS011;15921;52.034;20.650;2024-02-16T13:53:32;19.45;;;9.75;;
28766;SDS011;15921;52.034;20.650;2024-02-16T13:55:58;15.75;;;8.45;;
28766;SDS011;15921;52.034;20.650;2024-02-16T13:58:28;18.05;;;9.57;;
28766;SDS011;15921;52.034;20.650;2024-02-16T14:00:55;24.70;;;11.23;;
28766;SDS011;15921;52.034;20.650;2024-02-16T14:03:21;23.13;;;10.90;;
28766;SDS011;15921;52.034;20.650;2024-02-16T14:05:47;19.80;;;11.13;;
28766;SDS011;15921;52.034;20.650;2024-02-16T14:08:13;19.77;;;10.23;;
28766;SDS011;15921;52.034;20.650;2024-02-16T14:10:41;20.27;;;9.93;;
28766;SDS011;15921;52.034;20.650;2024-02-16T14:13:06;20.95;;;10.18;;
28766;SDS011;15921;52.034;20.650;2024-02-16T14:15:32;16.48;;;7.93;;